createdAt,value
2022-08-30T00:03:25.328Z,4.93
2022-08-30T00:10:12.965Z,5.03
2022-08-30T00:17:01.004Z,5.10
2022-08-30T00:23:46.567Z,5.00
2022-08-30T00:30:32.600Z,5.03
2022-08-30T00:37:21.923Z,4.85
2022-08-30T00:44:08.454Z,5.20
2022-08-30T00:50:59.198Z,5.20
2022-08-30T00:57:50.545Z,5.38
2022-08-30T01:04:37.593Z,5.30
2022-08-30T01:11:26.965Z,5.40
2022-08-30T01:18:17.479Z,5.30
2022-08-30T01:25:08.224Z,5.45
2022-08-30T01:31:54.823Z,5.75
2022-08-30T01:38:49.000Z,5.47
2022-08-30T01:45:37.541Z,5.70
2022-08-30T01:52:23.337Z,5.50
2022-08-30T01:59:09.632Z,5.70
2022-08-30T02:05:57.701Z,5.43
2022-08-30T02:12:43.595Z,5.18
2022-08-30T02:26:17.647Z,5.80
2022-08-30T02:33:03.692Z,6.22
2022-08-30T02:39:49.170Z,6.22
2022-08-30T03:00:26.086Z,6.57
2022-08-30T03:07:12.795Z,5.90
2022-08-30T03:13:58.379Z,5.70
2022-08-30T03:20:54.072Z,6.38
2022-08-30T03:27:40.965Z,6.20
2022-08-30T03:34:27.817Z,6.38
2022-08-30T03:41:17.285Z,6.15
2022-08-30T03:48:03.488Z,6.53
2022-08-30T03:54:49.269Z,6.60
2022-08-30T04:01:37.318Z,6.70
2022-08-30T04:08:23.238Z,6.10
2022-08-30T04:15:11.300Z,7.07
2022-08-30T04:21:59.643Z,6.57
2022-08-30T04:28:45.186Z,6.18
2022-08-30T04:35:31.931Z,6.88
2022-08-30T04:42:20.513Z,6.30
2022-08-30T04:49:08.189Z,6.60
2022-08-30T04:55:54.097Z,6.25
2022-08-30T05:02:43.743Z,7.35
2022-08-30T05:09:29.259Z,6.45
2022-08-30T05:16:18.108Z,6.40
2022-08-30T05:23:07.143Z,6.38
2022-08-30T05:29:52.622Z,6.50
2022-08-30T05:36:41.716Z,6.30
2022-08-30T05:43:30.069Z,6.55
2022-08-30T05:50:15.631Z,6.45
2022-08-30T05:57:01.146Z,6.63
2022-08-30T06:03:49.992Z,6.82
2022-08-30T06:10:35.396Z,6.40
2022-08-30T06:17:21.076Z,6.97
2022-08-30T06:24:13.684Z,6.85
2022-08-30T06:30:59.253Z,6.50
2022-08-30T06:37:44.752Z,6.80
2022-08-30T06:44:32.944Z,7.40
2022-08-30T06:51:22.016Z,6.50
2022-08-30T06:58:08.614Z,6.25
2022-08-30T07:04:56.659Z,6.53
2022-08-30T07:11:42.173Z,6.10
2022-08-30T07:18:49.260Z,6.70
2022-08-30T07:25:38.618Z,6.28
2022-08-30T07:32:24.128Z,6.55
2022-08-30T07:39:11.052Z,6.00
2022-08-30T07:46:00.456Z,5.68
2022-08-30T07:52:46.028Z,6.68
2022-08-30T07:59:34.213Z,6.10
2022-08-30T08:06:27.669Z,6.15
2022-08-30T08:13:18.964Z,6.00
2022-08-30T08:20:08.007Z,5.82
2022-08-30T08:26:56.537Z,5.72
2022-08-30T08:33:41.996Z,5.82
2022-08-30T08:40:27.869Z,5.75
2022-08-30T08:47:25.024Z,5.55
2022-08-30T08:54:18.199Z,5.90
2022-08-30T09:01:05.258Z,5.82
2022-08-30T09:08:00.882Z,5.80
2022-08-30T09:14:51.611Z,5.70
2022-08-30T09:21:41.317Z,5.80
2022-08-30T09:28:32.737Z,5.30
2022-08-30T09:35:25.942Z,5.57
2022-08-30T09:42:23.795Z,5.60
2022-08-30T09:49:32.803Z,5.70
2022-08-30T09:56:30.657Z,5.32
2022-08-30T10:03:36.314Z,5.20
2022-08-30T10:10:41.781Z,5.85
2022-08-30T10:17:44.890Z,5.43
2022-08-30T10:24:36.259Z,5.28
2022-08-30T10:31:35.169Z,5.13
2022-08-30T10:38:27.422Z,5.40
2022-08-30T10:45:18.877Z,5.57
2022-08-30T10:59:29.996Z,5.43
2022-08-30T11:06:27.439Z,5.20
2022-08-30T11:13:23.075Z,5.57
2022-08-30T11:20:26.418Z,5.20
2022-08-30T11:27:12.791Z,5.07
2022-08-30T11:34:02.780Z,5.10
2022-08-30T11:40:55.088Z,4.97
2022-08-30T11:47:45.291Z,4.75
2022-08-30T11:54:43.479Z,5.60
2022-08-30T12:01:51.040Z,5.05
2022-08-30T12:09:02.350Z,5.22
2022-08-30T12:16:07.808Z,4.97
2022-08-30T12:22:56.865Z,4.80
2022-08-30T12:29:54.843Z,5.25
2022-08-30T12:36:53.748Z,5.18
2022-08-30T12:43:42.457Z,5.10
2022-08-30T12:50:33.328Z,4.85
2022-08-30T12:57:40.186Z,4.68
2022-08-30T13:04:31.676Z,4.70
2022-08-30T13:11:29.777Z,5.72
2022-08-30T13:18:27.585Z,4.75
2022-08-30T13:25:14.928Z,4.72
2022-08-30T13:32:00.971Z,4.88
2022-08-30T13:38:50.136Z,4.85
2022-08-30T13:45:43.202Z,4.75
2022-08-30T13:52:28.908Z,5.18
2022-08-30T13:59:18.222Z,4.45
2022-08-30T14:06:29.472Z,4.70
2022-08-30T14:13:11.885Z,4.90
2022-08-30T14:20:02.504Z,5.13
2022-08-30T14:26:51.386Z,5.07
2022-08-30T14:33:36.920Z,5.13
2022-08-30T14:40:25.082Z,5.00
2022-08-30T14:47:11.317Z,4.97
2022-08-30T14:53:57.803Z,5.18
2022-08-30T15:00:45.942Z,5.07
2022-08-30T15:07:31.470Z,4.82
2022-08-30T15:14:17.339Z,5.03
2022-08-30T15:21:05.461Z,5.85
2022-08-30T15:27:51.871Z,5.15
2022-08-30T15:34:37.737Z,4.75
2022-08-30T15:41:26.940Z,5.40
2022-08-30T15:48:14.357Z,4.93
2022-08-30T15:55:00.020Z,4.88
2022-08-30T16:01:49.472Z,5.25
2022-08-30T16:08:35.480Z,4.63
2022-08-30T16:15:21.034Z,4.85
2022-08-30T16:22:11.308Z,4.82
2022-08-30T16:28:58.260Z,4.80
2022-08-30T16:35:44.111Z,5.07
2022-08-30T16:42:32.732Z,5.47
2022-08-30T16:49:18.431Z,4.78
2022-08-30T16:56:09.733Z,5.28
2022-08-30T17:02:59.212Z,5.32
2022-08-30T17:09:45.184Z,4.72
2022-08-30T17:16:30.773Z,4.90
2022-08-30T17:23:19.505Z,4.85
2022-08-30T17:30:08.771Z,4.55
2022-08-30T17:36:57.241Z,5.55
2022-08-30T17:43:45.516Z,5.05
2022-08-30T17:50:33.250Z,5.25
2022-08-30T17:57:19.224Z,5.18
2022-08-30T18:04:08.472Z,5.15
2022-08-30T18:10:54.023Z,5.25
2022-08-30T18:17:41.245Z,5.22
2022-08-30T18:24:29.897Z,4.65
2022-08-30T18:31:15.606Z,4.80
2022-08-30T18:38:01.812Z,4.93
2022-08-30T18:44:50.148Z,4.88
2022-08-30T18:51:35.701Z,4.93
2022-08-30T18:58:21.958Z,5.70
2022-08-30T19:05:12.041Z,5.20
2022-08-30T19:11:58.075Z,5.82
2022-08-30T19:18:44.100Z,5.13
2022-08-30T19:25:33.672Z,5.03
2022-08-30T19:32:19.241Z,5.00
2022-08-30T19:39:05.117Z,5.03
2022-08-30T19:46:00.858Z,5.35
2022-08-30T19:52:53.730Z,5.43
2022-08-30T19:59:44.108Z,5.93
2022-08-30T20:06:33.666Z,5.70
2022-08-30T20:13:21.629Z,5.63
2022-08-30T20:20:13.100Z,5.03
2022-08-30T20:27:03.555Z,5.93
2022-08-30T20:33:49.062Z,5.65
2022-08-30T20:40:34.851Z,5.00
2022-08-30T20:47:23.668Z,5.93
2022-08-30T20:54:09.930Z,5.40
2022-08-30T21:00:57.121Z,6.30
2022-08-30T21:07:47.208Z,5.97
2022-08-30T21:14:33.267Z,6.22
2022-08-30T21:21:22.646Z,6.82
2022-08-30T21:28:11.330Z,6.15
2022-08-30T21:35:09.361Z,5.80
2022-08-30T21:41:59.599Z,6.20
2022-08-30T21:48:49.105Z,5.80
2022-08-30T21:55:34.656Z,6.22
2022-08-30T22:02:20.497Z,6.25
2022-08-30T22:09:13.583Z,6.13
2022-08-30T22:15:59.101Z,5.50
2022-08-30T22:22:44.732Z,5.80
2022-08-30T22:29:33.051Z,5.80
2022-08-30T22:36:21.926Z,5.47
2022-08-30T22:43:07.625Z,5.53
2022-08-30T22:49:55.820Z,5.82
2022-08-30T22:56:42.868Z,5.72
2022-08-30T23:03:28.415Z,5.07
2022-08-30T23:10:17.842Z,5.90
2022-08-30T23:17:03.484Z,5.63
2022-08-30T23:24:01.777Z,5.30
2022-08-30T23:31:02.325Z,6.00
2022-08-30T23:38:00.277Z,6.00
2022-08-30T23:44:58.253Z,5.68
2022-08-30T23:51:58.875Z,5.45
2022-08-30T23:58:56.904Z,5.82
